createdAt,value
2019-05-29T00:01:30.005Z,101364.22
2019-05-29T00:03:58.918Z,101377.27
2019-05-29T00:06:27.784Z,101377.00
2019-05-29T00:08:56.694Z,101383.11
2019-05-29T00:11:25.603Z,101386.23
2019-05-29T00:13:54.525Z,101390.00
2019-05-29T00:16:23.412Z,101389.48
2019-05-29T00:18:52.315Z,101392.38
2019-05-29T00:21:21.248Z,101396.22
2019-05-29T00:23:50.151Z,101395.27
2019-05-29T00:26:19.064Z,101398.59
2019-05-29T00:28:47.943Z,101401.75
2019-05-29T00:31:18.137Z,101405.22
2019-05-29T00:33:45.748Z,101409.12
2019-05-29T00:36:14.657Z,101409.03
2019-05-29T00:38:43.534Z,101420.43
2019-05-29T00:41:12.969Z,101417.36
2019-05-29T00:43:41.339Z,101422.41
2019-05-29T00:46:11.331Z,101425.09
2019-05-29T00:48:39.121Z,101420.91
2019-05-29T00:51:08.927Z,101427.27
2019-05-29T00:53:36.971Z,101429.33
2019-05-29T00:56:05.911Z,101433.17
2019-05-29T00:58:34.805Z,101428.46
2019-05-29T01:01:03.717Z,101431.92
2019-05-29T01:03:32.638Z,101432.78
2019-05-29T01:06:01.543Z,101428.33
2019-05-29T01:08:30.420Z,101434.04
2019-05-29T01:10:59.324Z,101434.91
2019-05-29T01:13:28.222Z,101446.20
2019-05-29T01:15:57.133Z,101442.16
2019-05-29T01:18:26.010Z,101438.30
2019-05-29T01:20:54.910Z,101446.99
2019-05-29T01:23:23.818Z,101443.84
2019-05-29T01:25:52.704Z,101440.00
2019-05-29T01:28:21.590Z,101446.34
2019-05-29T01:30:51.525Z,101449.15
2019-05-29T01:33:20.454Z,101447.61
2019-05-29T01:35:48.293Z,101455.22
2019-05-29T01:38:17.247Z,101457.23
2019-05-29T01:40:46.089Z,101454.26
2019-05-29T01:43:15.357Z,101452.27
2019-05-29T01:45:43.871Z,101444.19
2019-05-29T01:48:12.750Z,101452.44
2019-05-29T01:50:41.956Z,101452.05
2019-05-29T01:53:10.857Z,101451.66
2019-05-29T01:55:39.756Z,101456.27
2019-05-29T01:58:08.707Z,101458.19
2019-05-29T02:00:37.590Z,101467.59
2019-05-29T02:03:06.552Z,101473.41
2019-05-29T02:05:35.410Z,101473.28
2019-05-29T02:08:04.313Z,101476.27
2019-05-29T02:10:33.219Z,101473.84
2019-05-29T02:13:02.090Z,101469.80
2019-05-29T02:15:33.803Z,101472.41
2019-05-29T02:17:59.891Z,101474.49
2019-05-29T02:20:28.794Z,101473.15
2019-05-29T02:22:57.719Z,101470.02
2019-05-29T02:25:26.617Z,101476.05
2019-05-29T02:27:55.518Z,101479.94
2019-05-29T02:30:27.801Z,101480.86
2019-05-29T02:32:53.291Z,101483.73
2019-05-29T02:35:23.036Z,101483.81
2019-05-29T02:37:51.105Z,101485.12
2019-05-29T02:40:21.236Z,101491.92
2019-05-29T02:42:48.884Z,101492.74
2019-05-29T02:45:19.448Z,101492.55
2019-05-29T02:47:46.782Z,101491.38
2019-05-29T02:50:15.693Z,101488.13
2019-05-29T02:52:44.596Z,101495.63
2019-05-29T02:55:13.481Z,101496.92
2019-05-29T02:57:42.353Z,101503.64
2019-05-29T03:00:11.275Z,101499.98
2019-05-29T03:02:40.178Z,101507.95
2019-05-29T03:05:09.059Z,101513.66
2019-05-29T03:07:37.964Z,101514.58
2019-05-29T03:10:06.958Z,101509.02
2019-05-29T03:12:35.834Z,101509.43
2019-05-29T03:17:44.964Z,101518.14
2019-05-29T03:20:13.880Z,101515.53
2019-05-29T03:22:42.795Z,101516.09
2019-05-29T03:25:11.721Z,101516.17
2019-05-29T03:27:40.591Z,101515.70
2019-05-29T03:30:09.567Z,101522.70
2019-05-29T03:32:46.171Z,101526.97
2019-05-29T03:35:07.495Z,101525.03
2019-05-29T03:37:36.375Z,101525.98
2019-05-29T03:40:05.787Z,101528.70
2019-05-29T03:42:34.671Z,101539.31
2019-05-29T03:45:03.589Z,101542.48
2019-05-29T03:47:33.190Z,101549.19
2019-05-29T03:50:01.344Z,101549.64
2019-05-29T03:52:30.484Z,101554.06
2019-05-29T03:54:59.154Z,101557.27
2019-05-29T03:57:29.697Z,101559.95
2019-05-29T03:59:56.916Z,101556.91
2019-05-29T04:02:26.739Z,101566.14
2019-05-29T04:04:54.707Z,101560.50
2019-05-29T04:07:23.597Z,101565.87
2019-05-29T04:09:52.487Z,101564.20
2019-05-29T04:12:21.351Z,101565.94
2019-05-29T04:14:50.248Z,101564.87
2019-05-29T04:17:19.167Z,101565.09
2019-05-29T04:19:48.057Z,101561.09
2019-05-29T04:22:16.967Z,101564.56
2019-05-29T04:24:45.859Z,101571.91
2019-05-29T04:27:14.764Z,101577.78
2019-05-29T04:29:43.850Z,101586.61
2019-05-29T04:32:12.724Z,101586.42
2019-05-29T04:34:41.615Z,101588.61
2019-05-29T04:37:10.475Z,101587.27
2019-05-29T04:39:39.370Z,101591.58
2019-05-29T04:42:08.280Z,101594.02
2019-05-29T04:44:38.929Z,101594.54
2019-05-29T04:47:10.956Z,101599.46
2019-05-29T04:49:36.178Z,101602.67
2019-05-29T04:52:03.924Z,101607.51
2019-05-29T04:54:33.391Z,101610.59
2019-05-29T04:57:01.695Z,101614.56
2019-05-29T04:59:30.832Z,101620.34
2019-05-29T05:01:59.501Z,101624.98
2019-05-29T05:04:29.136Z,101633.45
2019-05-29T05:06:57.263Z,101627.51
2019-05-29T05:09:26.187Z,101627.72
2019-05-29T05:11:55.050Z,101630.05
2019-05-29T05:14:23.952Z,101636.87
2019-05-29T05:16:52.818Z,101632.25
2019-05-29T05:19:21.727Z,101642.06
2019-05-29T05:21:50.644Z,101642.56
2019-05-29T05:24:19.542Z,101642.27
2019-05-29T05:26:48.416Z,101660.81
2019-05-29T05:29:17.301Z,101659.65
2019-05-29T05:31:46.189Z,101660.69
2019-05-29T05:34:15.070Z,101662.70
2019-05-29T05:36:43.969Z,101665.56
2019-05-29T05:39:12.873Z,101671.67
2019-05-29T05:41:41.763Z,101674.42
2019-05-29T05:44:10.671Z,101680.84
2019-05-29T05:46:39.546Z,101678.80
2019-05-29T05:49:08.576Z,101682.89
2019-05-29T05:51:42.206Z,101683.83
2019-05-29T05:54:06.551Z,101685.05
2019-05-29T05:56:35.697Z,101686.53
2019-05-29T05:59:04.418Z,101694.17
2019-05-29T06:01:33.777Z,101691.48
2019-05-29T06:04:02.131Z,101699.41
2019-05-29T06:06:31.981Z,101704.13
2019-05-29T06:08:59.950Z,101705.30
2019-05-29T06:11:28.843Z,101705.23
2019-05-29T06:13:57.742Z,101701.98
2019-05-29T06:16:26.622Z,101698.39
2019-05-29T06:18:55.555Z,101697.09
2019-05-29T06:21:24.457Z,101689.88
2019-05-29T06:23:53.349Z,101689.06
2019-05-29T06:26:22.247Z,101698.27
2019-05-29T06:28:51.153Z,101690.97
2019-05-29T06:31:20.060Z,101699.28
2019-05-29T06:33:48.950Z,101704.22
2019-05-29T06:36:17.870Z,101702.30
2019-05-29T06:38:46.741Z,101692.20
2019-05-29T06:41:15.656Z,101694.49
2019-05-29T06:43:44.752Z,101694.11
2019-05-29T06:46:13.439Z,101691.00
2019-05-29T06:48:58.044Z,101701.08
2019-05-29T06:51:11.419Z,101696.97
2019-05-29T06:53:40.161Z,101697.15
2019-05-29T06:56:09.241Z,101702.43
2019-05-29T06:58:38.153Z,101699.91
2019-05-29T07:01:07.120Z,101701.08
2019-05-29T07:03:37.558Z,101701.92
2019-05-29T07:06:04.973Z,101705.80
2019-05-29T07:08:39.946Z,101697.96
2019-05-29T07:11:02.761Z,101693.92
2019-05-29T07:13:35.017Z,101705.50
2019-05-29T07:16:00.577Z,101703.89
2019-05-29T07:18:29.472Z,101709.89
2019-05-29T07:20:58.349Z,101705.81
2019-05-29T07:23:27.275Z,101708.19
2019-05-29T07:25:56.170Z,101712.55
2019-05-29T07:28:25.069Z,101710.16
2019-05-29T07:31:02.000Z,101708.34
2019-05-29T07:33:22.908Z,101711.95
2019-05-29T07:35:51.810Z,101712.31
2019-05-29T07:38:20.706Z,101712.08
2019-05-29T07:40:50.202Z,101716.73
2019-05-29T07:43:18.531Z,101715.05
2019-05-29T07:45:48.219Z,101715.05
2019-05-29T07:48:16.326Z,101721.91
2019-05-29T07:50:46.246Z,101721.71
2019-05-29T07:53:14.133Z,101720.38
2019-05-29T07:55:43.025Z,101721.52
2019-05-29T07:58:11.924Z,101719.16
2019-05-29T08:01:02.627Z,101720.14
2019-05-29T08:03:09.800Z,101719.94
2019-05-29T08:05:39.208Z,101721.93
2019-05-29T08:08:07.735Z,101716.86
2019-05-29T08:10:36.626Z,101716.75
2019-05-29T08:13:05.629Z,101712.86
2019-05-29T08:15:49.159Z,101720.24
2019-05-29T08:18:03.502Z,101717.02
2019-05-29T08:20:32.373Z,101719.67
2019-05-29T08:23:01.306Z,101719.45
2019-05-29T08:25:30.195Z,101723.36
2019-05-29T08:27:59.082Z,101715.09
2019-05-29T08:30:27.971Z,101718.80
2019-05-29T08:32:56.865Z,101716.55
2019-05-29T08:35:25.768Z,101718.59
2019-05-29T08:37:54.672Z,101720.68
2019-05-29T08:40:23.545Z,101716.61
2019-05-29T08:42:52.459Z,101713.31
2019-05-29T08:45:21.372Z,101708.55
2019-05-29T08:47:50.287Z,101710.20
2019-05-29T08:50:19.534Z,101712.50
2019-05-29T08:52:48.176Z,101717.74
2019-05-29T08:55:17.030Z,101710.05
2019-05-29T08:57:46.349Z,101709.20
2019-05-29T09:00:14.925Z,101706.64
2019-05-29T09:02:44.660Z,101705.21
2019-05-29T09:05:12.731Z,101707.31
2019-05-29T09:07:43.220Z,101709.65
2019-05-29T09:10:10.527Z,101706.72
2019-05-29T09:12:39.442Z,101712.86
2019-05-29T09:15:09.324Z,101700.70
2019-05-29T09:17:37.426Z,101703.34
2019-05-29T09:20:06.489Z,101702.38
2019-05-29T09:22:35.382Z,101705.00
2019-05-29T09:25:04.972Z,101702.84
2019-05-29T09:27:33.853Z,101709.86
2019-05-29T09:30:02.775Z,101709.27
2019-05-29T09:32:48.304Z,101707.60
2019-05-29T09:35:00.557Z,101706.91
2019-05-29T09:37:29.460Z,101710.47
2019-05-29T09:39:58.366Z,101712.61
2019-05-29T09:42:27.283Z,101713.95
2019-05-29T09:44:56.173Z,101706.91
2019-05-29T09:47:26.382Z,101705.03
2019-05-29T09:49:54.023Z,101710.45
2019-05-29T09:52:22.937Z,101710.78
2019-05-29T09:54:53.038Z,101710.55
2019-05-29T09:57:20.752Z,101720.56
2019-05-29T09:59:49.644Z,101714.05
2019-05-29T10:02:18.555Z,101718.07
2019-05-29T10:04:47.425Z,101713.80
2019-05-29T10:07:16.304Z,101713.76
2019-05-29T10:09:45.208Z,101711.45
2019-05-29T10:12:14.091Z,101710.38
2019-05-29T10:14:43.007Z,101706.17
2019-05-29T10:17:13.129Z,101712.98
2019-05-29T10:19:40.791Z,101705.17
2019-05-29T10:22:09.705Z,101709.20
2019-05-29T10:24:38.593Z,101702.25
2019-05-29T10:27:07.567Z,101711.67
2019-05-29T10:29:36.491Z,101709.58
2019-05-29T10:32:05.426Z,101708.30
2019-05-29T10:34:34.304Z,101704.13
2019-05-29T10:37:03.242Z,101700.22
2019-05-29T10:39:32.149Z,101704.20
2019-05-29T10:42:01.028Z,101692.62
2019-05-29T10:44:29.921Z,101706.52
2019-05-29T10:46:58.791Z,101695.15
2019-05-29T10:49:27.774Z,101704.54
2019-05-29T10:52:13.120Z,101708.80
2019-05-29T10:54:25.493Z,101704.61
2019-05-29T10:56:55.028Z,101696.03
2019-05-29T10:59:23.311Z,101696.95
2019-05-29T11:01:53.703Z,101692.89
2019-05-29T11:04:21.155Z,101709.31
2019-05-29T11:06:50.285Z,101696.12
2019-05-29T11:09:18.964Z,101696.33
2019-05-29T11:11:48.390Z,101697.73
2019-05-29T11:14:16.767Z,101699.83
2019-05-29T11:16:46.914Z,101703.03
2019-05-29T11:19:14.588Z,101705.50
2019-05-29T11:21:43.493Z,101698.27
2019-05-29T11:24:12.418Z,101690.21
2019-05-29T11:26:41.292Z,101704.92
2019-05-29T11:29:10.223Z,101691.59
2019-05-29T11:31:39.119Z,101697.73
2019-05-29T11:34:08.079Z,101699.77
2019-05-29T11:36:36.971Z,101689.33
2019-05-29T11:39:07.363Z,101690.91
2019-05-29T11:41:36.290Z,101687.59
2019-05-29T11:44:05.299Z,101683.25
2019-05-29T11:46:34.735Z,101677.76
2019-05-29T11:49:03.788Z,101674.11
2019-05-29T11:51:32.589Z,101689.11
2019-05-29T11:54:02.436Z,101684.22
2019-05-29T11:56:30.421Z,101683.80
2019-05-29T11:58:59.467Z,101694.16
2019-05-29T12:01:28.195Z,101686.59
2019-05-29T12:04:18.688Z,101683.09
2019-05-29T12:06:26.022Z,101687.87
2019-05-29T12:08:55.785Z,101685.09
2019-05-29T12:11:23.847Z,101682.70
2019-05-29T12:13:54.189Z,101683.67
2019-05-29T12:16:21.664Z,101680.97
2019-05-29T12:18:51.518Z,101677.75
2019-05-29T12:21:19.480Z,101679.71
2019-05-29T12:23:48.391Z,101674.48
2019-05-29T12:26:22.752Z,101683.01
2019-05-29T12:28:46.215Z,101674.36
2019-05-29T12:31:15.080Z,101673.01
2019-05-29T12:33:44.044Z,101679.06
2019-05-29T12:36:12.902Z,101677.81
2019-05-29T12:38:41.819Z,101671.08
2019-05-29T12:41:10.733Z,101680.20
2019-05-29T12:43:39.630Z,101679.84
2019-05-29T12:46:08.730Z,101669.80
2019-05-29T12:48:37.625Z,101667.81
2019-05-29T12:51:06.876Z,101665.58
2019-05-29T12:53:35.794Z,101660.61
2019-05-29T12:56:04.830Z,101662.50
2019-05-29T12:58:33.730Z,101665.00
2019-05-29T13:01:03.054Z,101659.19
2019-05-29T13:03:31.534Z,101657.06
2019-05-29T13:06:00.493Z,101646.45
2019-05-29T13:08:29.331Z,101657.37
2019-05-29T13:10:58.460Z,101652.29
2019-05-29T13:13:27.351Z,101648.37
2019-05-29T13:15:56.707Z,101643.98
2019-05-29T13:18:25.149Z,101646.41
2019-05-29T13:20:54.763Z,101640.63
2019-05-29T13:23:22.983Z,101634.23
2019-05-29T13:25:51.870Z,101642.51
2019-05-29T13:28:20.776Z,101633.06
2019-05-29T13:30:49.657Z,101634.77
2019-05-29T13:33:18.573Z,101636.54
2019-05-29T13:35:47.445Z,101633.12
2019-05-29T13:38:16.368Z,101635.27
2019-05-29T13:40:45.296Z,101639.11
2019-05-29T13:43:15.729Z,101632.61
2019-05-29T13:45:43.080Z,101627.76
2019-05-29T13:48:11.992Z,101616.00
2019-05-29T13:50:40.884Z,101627.70
2019-05-29T13:53:09.816Z,101621.38
2019-05-29T13:55:38.700Z,101623.53
2019-05-29T13:58:07.912Z,101619.27
2019-05-29T14:00:36.638Z,101620.16
2019-05-29T14:03:07.023Z,101622.72
2019-05-29T14:05:34.649Z,101622.59
2019-05-29T14:08:04.772Z,101617.79
2019-05-29T14:10:32.460Z,101619.50
2019-05-29T14:13:01.350Z,101606.87
2019-05-29T14:15:30.250Z,101613.78
2019-05-29T14:18:00.565Z,101610.32
2019-05-29T14:20:28.056Z,101607.08
2019-05-29T14:22:56.953Z,101610.11
2019-05-29T14:25:25.882Z,101613.50
2019-05-29T14:27:54.838Z,101608.41
2019-05-29T14:30:23.682Z,101602.57
2019-05-29T14:32:52.581Z,101598.89
2019-05-29T14:35:21.491Z,101605.57
2019-05-29T14:37:50.375Z,101601.49
2019-05-29T14:40:19.300Z,101608.55
2019-05-29T14:42:48.215Z,101591.20
2019-05-29T14:45:17.129Z,101589.08
2019-05-29T14:47:46.018Z,101586.11
2019-05-29T14:50:14.939Z,101595.70
2019-05-29T14:52:43.848Z,101579.95
2019-05-29T14:55:16.121Z,101592.25
2019-05-29T14:57:41.583Z,101572.63
2019-05-29T15:00:20.613Z,101579.00
2019-05-29T15:02:39.474Z,101581.63
2019-05-29T15:05:09.600Z,101589.22
2019-05-29T15:07:37.324Z,101579.27
2019-05-29T15:10:13.078Z,101577.98
2019-05-29T15:12:35.255Z,101577.96
2019-05-29T15:15:04.749Z,101569.75
2019-05-29T15:17:33.156Z,101567.17
2019-05-29T15:20:02.336Z,101569.88
2019-05-29T15:22:31.001Z,101570.02
2019-05-29T15:25:10.628Z,101565.05
2019-05-29T15:27:28.774Z,101579.80
2019-05-29T15:29:57.686Z,101569.76
2019-05-29T15:32:26.659Z,101560.66
2019-05-29T15:34:55.528Z,101563.24
2019-05-29T15:37:24.443Z,101563.00
2019-05-29T15:39:53.355Z,101553.68
2019-05-29T15:42:22.252Z,101566.05
2019-05-29T15:44:51.126Z,101566.86
2019-05-29T15:47:20.026Z,101557.86
2019-05-29T15:49:48.898Z,101559.45
2019-05-29T15:52:17.806Z,101550.86
2019-05-29T15:54:46.726Z,101545.94
2019-05-29T15:57:15.608Z,101553.16
2019-05-29T15:59:45.021Z,101547.56
2019-05-29T16:02:13.897Z,101550.63
2019-05-29T16:04:42.779Z,101541.47
2019-05-29T16:07:11.923Z,101544.11
2019-05-29T16:09:40.561Z,101542.92
2019-05-29T16:12:10.498Z,101547.69
2019-05-29T16:14:38.471Z,101543.80
2019-05-29T16:17:08.921Z,101539.23
2019-05-29T16:19:36.468Z,101530.56
2019-05-29T16:22:05.419Z,101543.26
2019-05-29T16:24:34.337Z,101542.16
2019-05-29T16:27:08.886Z,101546.89
2019-05-29T16:29:32.135Z,101540.86
2019-05-29T16:32:01.021Z,101543.02
2019-05-29T16:34:29.915Z,101543.48
2019-05-29T16:36:58.786Z,101538.11
2019-05-29T16:39:27.696Z,101538.58
2019-05-29T16:41:56.579Z,101533.17
2019-05-29T16:44:29.318Z,101546.20
2019-05-29T16:46:54.432Z,101539.66
2019-05-29T16:49:23.325Z,101543.17
2019-05-29T16:51:52.213Z,101551.28
2019-05-29T16:54:21.138Z,101537.78
2019-05-29T16:56:50.012Z,101540.64
2019-05-29T16:59:19.255Z,101538.84
2019-05-29T17:01:47.829Z,101552.67
2019-05-29T17:04:17.681Z,101555.91
2019-05-29T17:06:45.634Z,101547.98
2019-05-29T17:09:14.596Z,101542.55
2019-05-29T17:11:43.443Z,101545.86
2019-05-29T17:14:12.323Z,101542.75
2019-05-29T17:16:41.226Z,101547.80
2019-05-29T17:19:10.237Z,101550.57
2019-05-29T17:21:39.160Z,101560.38
2019-05-29T17:24:08.068Z,101544.70
2019-05-29T17:26:36.958Z,101541.14
2019-05-29T17:29:05.946Z,101532.66
2019-05-29T17:31:34.787Z,101543.76
2019-05-29T17:34:03.721Z,101541.34
2019-05-29T17:36:32.625Z,101539.55
2019-05-29T17:39:01.538Z,101553.20
2019-05-29T17:41:30.457Z,101543.02
2019-05-29T17:43:59.338Z,101548.95
2019-05-29T17:46:28.239Z,101535.30
2019-05-29T17:48:57.129Z,101533.72
2019-05-29T17:51:26.153Z,101537.58
2019-05-29T17:53:55.143Z,101535.25
2019-05-29T17:56:35.578Z,101535.37
2019-05-29T17:58:52.936Z,101532.98
2019-05-29T18:01:22.255Z,101537.52
2019-05-29T18:03:50.748Z,101534.64
2019-05-29T18:06:20.244Z,101546.04
2019-05-29T18:08:48.543Z,101548.30
2019-05-29T18:11:17.422Z,101547.92
2019-05-29T18:13:46.322Z,101549.31
2019-05-29T18:16:15.207Z,101544.77
2019-05-29T18:18:44.115Z,101545.27
2019-05-29T18:21:12.997Z,101550.34
2019-05-29T18:23:41.923Z,101547.69
2019-05-29T18:26:10.891Z,101552.67
2019-05-29T18:28:39.780Z,101549.27
2019-05-29T18:31:08.766Z,101544.47
2019-05-29T18:33:37.664Z,101541.33
2019-05-29T18:36:06.715Z,101541.33
2019-05-29T18:38:35.625Z,101532.40
2019-05-29T18:41:04.683Z,101532.75
2019-05-29T18:43:33.517Z,101528.21
2019-05-29T18:46:02.463Z,101533.43
2019-05-29T18:48:32.413Z,101530.34
2019-05-29T18:51:00.285Z,101529.70
2019-05-29T18:53:29.200Z,101524.84
2019-05-29T18:55:58.097Z,101536.61
2019-05-29T18:58:28.115Z,101539.56
2019-05-29T19:00:55.886Z,101538.36
2019-05-29T19:03:25.394Z,101538.05
2019-05-29T19:05:53.650Z,101536.33
2019-05-29T19:08:23.599Z,101532.38
2019-05-29T19:10:51.437Z,101539.80
2019-05-29T19:13:21.684Z,101536.53
2019-05-29T19:15:49.235Z,101545.30
2019-05-29T19:18:18.143Z,101548.42
2019-05-29T19:20:47.018Z,101545.16
2019-05-29T19:23:15.948Z,101547.04
2019-05-29T19:25:44.863Z,101547.91
2019-05-29T19:28:13.742Z,101547.89
2019-05-29T19:30:42.647Z,101542.58
2019-05-29T19:33:11.577Z,101541.22
2019-05-29T19:35:40.459Z,101540.68
2019-05-29T19:38:09.444Z,101541.72
2019-05-29T19:40:38.334Z,101544.27
2019-05-29T19:43:07.495Z,101547.72
2019-05-29T19:45:36.389Z,101547.37
2019-05-29T19:48:05.353Z,101545.30
2019-05-29T19:50:35.025Z,101538.78
2019-05-29T19:53:03.160Z,101543.36
2019-05-29T19:55:35.441Z,101541.80
2019-05-29T19:58:00.969Z,101552.83
2019-05-29T20:00:30.085Z,101557.24
2019-05-29T20:02:58.756Z,101559.75
2019-05-29T20:05:28.610Z,101553.92
2019-05-29T20:07:56.554Z,101558.54
2019-05-29T20:10:25.463Z,101560.42
2019-05-29T20:12:54.395Z,101564.00
2019-05-29T20:15:23.286Z,101565.87
2019-05-29T20:17:52.210Z,101569.05
2019-05-29T20:20:21.087Z,101565.45
2019-05-29T20:22:49.992Z,101568.02
2019-05-29T20:25:18.898Z,101562.36
2019-05-29T20:27:47.804Z,101571.70
2019-05-29T20:30:16.820Z,101567.08
2019-05-29T20:32:45.787Z,101571.38
2019-05-29T20:35:14.738Z,101574.44
2019-05-29T20:37:43.644Z,101570.30
2019-05-29T20:40:12.558Z,101571.33
2019-05-29T20:42:42.538Z,101571.17
2019-05-29T20:45:10.390Z,101573.55
2019-05-29T20:47:39.967Z,101562.25
2019-05-29T20:50:08.227Z,101554.56
2019-05-29T20:52:37.396Z,101566.89
2019-05-29T20:55:06.078Z,101567.94
2019-05-29T20:57:35.882Z,101564.34
2019-05-29T21:00:04.104Z,101575.46
2019-05-29T21:02:33.972Z,101571.54
2019-05-29T21:05:01.877Z,101574.81
2019-05-29T21:07:30.802Z,101569.72
2019-05-29T21:09:59.703Z,101575.78
2019-05-29T21:12:28.640Z,101579.56
2019-05-29T21:14:57.533Z,101581.80
2019-05-29T21:17:26.422Z,101587.30
2019-05-29T21:19:55.326Z,101584.54
2019-05-29T21:22:24.234Z,101587.82
2019-05-29T21:25:02.371Z,101594.80
2019-05-29T21:27:22.088Z,101594.07
2019-05-29T21:29:51.013Z,101585.98
2019-05-29T21:32:19.930Z,101589.45
2019-05-29T21:34:48.829Z,101585.63
2019-05-29T21:37:17.742Z,101582.89
2019-05-29T21:39:46.786Z,101584.80
2019-05-29T21:42:15.581Z,101582.41
2019-05-29T21:44:44.917Z,101581.36
2019-05-29T21:47:13.396Z,101578.28
2019-05-29T21:49:43.249Z,101581.24
2019-05-29T21:52:11.330Z,101584.56
2019-05-29T21:54:41.364Z,101591.02
2019-05-29T21:57:09.067Z,101590.50
2019-05-29T21:59:37.960Z,101590.21
2019-05-29T22:02:06.912Z,101587.44
2019-05-29T22:04:35.853Z,101582.13
2019-05-29T22:07:04.764Z,101578.64
2019-05-29T22:09:33.636Z,101582.98
2019-05-29T22:12:02.532Z,101580.73
2019-05-29T22:14:31.458Z,101573.17
2019-05-29T22:17:01.238Z,101584.48
2019-05-29T22:19:29.231Z,101580.85
2019-05-29T22:21:59.164Z,101578.23
2019-05-29T22:24:27.073Z,101574.99
2019-05-29T22:26:57.247Z,101578.59
2019-05-29T22:29:24.908Z,101573.97
2019-05-29T22:31:53.824Z,101575.98
2019-05-29T22:34:22.732Z,101569.99
2019-05-29T22:36:51.650Z,101573.08
2019-05-29T22:39:20.587Z,101565.37
2019-05-29T22:41:49.519Z,101565.88
2019-05-29T22:44:18.425Z,101568.27
2019-05-29T22:46:47.358Z,101565.05
2019-05-29T22:49:16.300Z,101564.98
2019-05-29T22:51:45.223Z,101566.36
2019-05-29T22:54:14.105Z,101560.38
2019-05-29T22:56:43.016Z,101555.41
2019-05-29T22:59:12.028Z,101552.44
2019-05-29T23:01:40.942Z,101550.52
2019-05-29T23:04:09.920Z,101544.58
2019-05-29T23:06:38.836Z,101539.77
2019-05-29T23:09:07.834Z,101540.25
2019-05-29T23:11:36.726Z,101542.50
2019-05-29T23:14:05.633Z,101537.85
2019-05-29T23:16:34.557Z,101532.53
2019-05-29T23:19:03.449Z,101529.80
2019-05-29T23:21:32.379Z,101528.39
2019-05-29T23:24:01.752Z,101525.14
2019-05-29T23:26:30.195Z,101521.70
2019-05-29T23:28:59.326Z,101527.88
2019-05-29T23:31:28.038Z,101530.27
2019-05-29T23:33:56.991Z,101530.27
2019-05-29T23:36:25.886Z,101525.96
2019-05-29T23:38:55.101Z,101527.64
2019-05-29T23:41:23.686Z,101530.84
2019-05-29T23:43:53.357Z,101526.78
2019-05-29T23:46:21.501Z,101522.06
2019-05-29T23:48:50.420Z,101527.99
2019-05-29T23:51:19.353Z,101526.93
2019-05-29T23:53:48.284Z,101527.44
2019-05-29T23:56:17.156Z,101523.89
2019-05-29T23:58:46.085Z,101518.14
